createdAt,value
2024-01-11T00:01:50.064Z,58.94
2024-01-11T00:04:16.933Z,59.06
2024-01-11T00:06:44.550Z,58.98
2024-01-11T00:09:11.346Z,59.04
2024-01-11T00:11:37.991Z,59.12
2024-01-11T00:14:05.254Z,59.05
2024-01-11T00:16:32.348Z,59.17
2024-01-11T00:18:58.970Z,59.17
2024-01-11T00:21:25.867Z,59.09
2024-01-11T00:23:52.904Z,59.24
2024-01-11T00:26:20.198Z,59.50
2024-01-11T00:28:47.085Z,59.45
2024-01-11T00:31:14.993Z,59.41
2024-01-11T00:33:42.020Z,59.45
2024-01-11T00:36:08.931Z,59.54
2024-01-11T00:38:35.619Z,59.49
2024-01-11T00:41:02.524Z,59.48
2024-01-11T00:43:29.529Z,59.49
2024-01-11T00:45:56.033Z,59.62
2024-01-11T00:48:22.797Z,59.61
2024-01-11T00:50:49.430Z,59.70
2024-01-11T00:53:16.265Z,59.62
2024-01-11T00:55:43.133Z,59.75
2024-01-11T00:58:09.908Z,59.85
2024-01-11T01:00:36.568Z,59.97
2024-01-11T01:03:03.582Z,59.81
2024-01-11T01:05:30.295Z,59.93
2024-01-11T01:07:57.066Z,59.95
2024-01-11T01:10:24.103Z,60.09
2024-01-11T01:12:50.677Z,60.05
2024-01-11T01:15:17.552Z,60.24
2024-01-11T01:17:44.774Z,60.22
2024-01-11T01:20:12.378Z,60.29
2024-01-11T01:22:39.564Z,60.34
2024-01-11T01:25:07.361Z,60.33
2024-01-11T01:27:34.371Z,60.37
2024-01-11T01:30:01.069Z,60.38
2024-01-11T01:32:27.913Z,60.19
2024-01-11T01:34:54.779Z,60.44
2024-01-11T01:37:21.557Z,60.33
2024-01-11T01:39:48.269Z,60.38
2024-01-11T01:42:15.074Z,60.31
2024-01-11T01:44:42.769Z,60.29
2024-01-11T01:47:11.706Z,60.52
2024-01-11T01:49:40.107Z,60.43
2024-01-11T01:52:08.514Z,60.53
2024-01-11T01:54:35.258Z,60.40
2024-01-11T01:57:03.729Z,60.58
2024-01-11T01:59:31.820Z,60.48
2024-01-11T02:01:59.434Z,60.64
2024-01-11T02:04:26.810Z,60.53
2024-01-11T02:06:56.242Z,60.63
2024-01-11T02:09:23.912Z,60.40
2024-01-11T02:11:53.406Z,60.52
2024-01-11T02:14:20.689Z,60.63
2024-01-11T02:16:47.447Z,60.51
2024-01-11T02:19:14.995Z,60.38
2024-01-11T02:21:43.969Z,60.53
2024-01-11T02:24:11.248Z,60.44
2024-01-11T02:26:38.256Z,60.20
2024-01-11T02:29:05.783Z,60.08
2024-01-11T02:31:32.778Z,60.48
2024-01-11T02:33:59.936Z,60.27
2024-01-11T02:36:27.922Z,60.39
2024-01-11T02:38:54.931Z,60.55
2024-01-11T02:41:22.681Z,60.42
2024-01-11T02:43:50.134Z,60.55
2024-01-11T02:46:18.155Z,60.44
2024-01-11T02:48:45.414Z,60.77
2024-01-11T02:51:12.335Z,60.62
2024-01-11T02:53:39.216Z,60.50
2024-01-11T02:56:06.479Z,60.42
2024-01-11T02:58:33.335Z,60.60
2024-01-11T03:00:59.882Z,60.55
2024-01-11T03:03:26.552Z,60.78
2024-01-11T03:05:54.172Z,60.93
2024-01-11T03:08:20.965Z,60.55
2024-01-11T03:10:47.566Z,60.75
2024-01-11T03:13:14.070Z,60.94
2024-01-11T03:15:40.671Z,60.68
2024-01-11T03:18:07.457Z,60.73
2024-01-11T03:20:34.129Z,61.11
2024-01-11T03:23:01.066Z,60.94
2024-01-11T03:25:27.966Z,60.80
2024-01-11T03:27:55.008Z,60.86
2024-01-11T03:30:22.015Z,60.88
2024-01-11T03:32:49.158Z,60.94
2024-01-11T03:35:16.379Z,60.82
2024-01-11T03:37:43.480Z,60.80
2024-01-11T03:40:10.654Z,60.78
2024-01-11T03:42:37.455Z,61.08
2024-01-11T03:45:05.249Z,60.86
2024-01-11T03:47:31.847Z,60.95
2024-01-11T03:49:58.469Z,60.84
2024-01-11T03:52:25.042Z,60.97
2024-01-11T03:54:51.527Z,60.80
2024-01-11T03:57:18.613Z,60.85
2024-01-11T03:59:46.232Z,61.02
2024-01-11T04:02:13.837Z,61.01
2024-01-11T04:04:42.366Z,61.17
2024-01-11T04:07:08.914Z,61.08
2024-01-11T04:09:38.727Z,61.01
2024-01-11T04:12:07.651Z,61.27
2024-01-11T04:14:34.457Z,60.98
2024-01-11T04:17:01.034Z,61.27
2024-01-11T04:19:27.647Z,61.25
2024-01-11T04:21:55.390Z,61.34
2024-01-11T04:24:22.479Z,61.34
2024-01-11T04:26:48.983Z,61.16
2024-01-11T04:29:15.699Z,61.28
2024-01-11T04:31:42.407Z,61.13
2024-01-11T04:34:09.661Z,61.36
2024-01-11T04:36:40.008Z,61.29
2024-01-11T04:39:08.371Z,61.31
2024-01-11T04:41:39.829Z,61.22
2024-01-11T04:44:06.674Z,61.27
2024-01-11T04:46:33.435Z,61.32
2024-01-11T04:49:00.035Z,61.59
2024-01-11T04:51:26.635Z,61.39
2024-01-11T04:53:53.317Z,61.54
2024-01-11T04:56:20.586Z,61.57
2024-01-11T04:58:48.660Z,61.36
2024-01-11T05:01:17.206Z,61.35
2024-01-11T05:03:45.423Z,61.43
2024-01-11T05:06:23.047Z,61.39
2024-01-11T05:08:53.733Z,61.49
2024-01-11T05:11:22.711Z,61.28
2024-01-11T05:13:50.518Z,61.44
2024-01-11T05:16:22.176Z,61.43
2024-01-11T05:18:50.114Z,61.49
2024-01-11T05:21:17.008Z,61.41
2024-01-11T05:23:43.672Z,61.62
2024-01-11T05:26:11.406Z,61.50
2024-01-11T05:28:39.822Z,61.73
2024-01-11T05:31:08.981Z,61.68
2024-01-11T05:33:36.162Z,61.70
2024-01-11T05:36:03.970Z,61.74
2024-01-11T05:38:30.783Z,61.88
2024-01-11T05:40:57.897Z,61.98
2024-01-11T05:43:24.610Z,61.90
2024-01-11T05:45:52.411Z,62.01
2024-01-11T05:48:19.355Z,61.76
2024-01-11T05:50:46.635Z,61.85
2024-01-11T05:53:13.987Z,61.70
2024-01-11T05:55:41.248Z,61.99
2024-01-11T05:58:07.931Z,61.94
2024-01-11T06:00:35.783Z,61.95
2024-01-11T06:03:02.762Z,61.75
2024-01-11T06:05:29.553Z,62.11
2024-01-11T06:07:56.353Z,61.75
2024-01-11T06:10:23.229Z,61.63
2024-01-11T06:12:49.961Z,61.78
2024-01-11T06:15:16.726Z,61.88
2024-01-11T06:17:43.821Z,61.92
2024-01-11T06:20:11.857Z,61.92
2024-01-11T06:22:38.780Z,61.78
2024-01-11T06:25:05.922Z,61.84
2024-01-11T06:27:32.695Z,61.77
2024-01-11T06:29:59.972Z,61.61
2024-01-11T06:32:26.667Z,61.86
2024-01-11T06:34:53.735Z,61.55
2024-01-11T06:37:20.531Z,61.75
2024-01-11T06:39:47.118Z,61.90
2024-01-11T06:42:13.687Z,61.89
2024-01-11T06:44:40.275Z,61.82
2024-01-11T06:47:07.041Z,61.83
2024-01-11T06:49:35.007Z,61.92
2024-01-11T06:52:01.726Z,61.68
2024-01-11T06:54:28.296Z,61.85
2024-01-11T06:56:55.135Z,62.24
2024-01-11T06:59:23.533Z,62.35
2024-01-11T07:01:51.271Z,62.07
2024-01-11T07:04:18.064Z,62.11
2024-01-11T07:06:45.536Z,62.28
2024-01-11T07:09:12.976Z,62.28
2024-01-11T07:11:39.766Z,62.40
2024-01-11T07:14:06.912Z,62.54
2024-01-11T07:16:33.428Z,62.50
2024-01-11T07:19:00.011Z,62.60
2024-01-11T07:21:31.115Z,62.43
2024-01-11T07:24:01.506Z,62.20
2024-01-11T07:26:28.812Z,62.32
2024-01-11T07:28:56.071Z,62.56
2024-01-11T07:31:23.226Z,62.59
2024-01-11T07:33:50.115Z,62.43
2024-01-11T07:36:17.294Z,62.32
2024-01-11T07:38:43.910Z,62.31
2024-01-11T07:41:11.103Z,62.38
2024-01-11T07:43:45.774Z,62.63
2024-01-11T07:46:20.948Z,62.27
2024-01-11T07:48:50.241Z,62.37
2024-01-11T07:51:16.874Z,62.44
2024-01-11T07:53:43.519Z,62.76
2024-01-11T07:56:10.342Z,62.73
2024-01-11T07:58:38.811Z,62.57
2024-01-11T08:01:05.880Z,62.58
2024-01-11T08:03:32.842Z,62.53
2024-01-11T08:06:00.029Z,62.16
2024-01-11T08:08:27.820Z,62.18
2024-01-11T08:10:54.731Z,62.30
2024-01-11T08:13:22.729Z,62.41
2024-01-11T08:15:49.549Z,61.71
2024-01-11T08:18:16.454Z,61.79
2024-01-11T08:20:43.254Z,61.60
2024-01-11T08:23:10.009Z,61.72
2024-01-11T08:25:36.924Z,61.49
2024-01-11T08:28:04.112Z,61.53
2024-01-11T08:30:30.721Z,61.47
2024-01-11T08:32:57.471Z,61.37
2024-01-11T08:35:24.479Z,61.61
2024-01-11T08:37:51.524Z,61.12
2024-01-11T08:40:18.171Z,61.12
2024-01-11T08:42:45.001Z,60.91
2024-01-11T08:45:19.033Z,61.12
2024-01-11T08:47:48.289Z,60.77
2024-01-11T08:50:15.900Z,60.62
2024-01-11T08:52:43.285Z,60.58
2024-01-11T08:55:10.278Z,60.32
2024-01-11T08:57:37.042Z,60.38
2024-01-11T09:00:05.724Z,60.28
2024-01-11T09:02:32.384Z,60.13
2024-01-11T09:04:59.356Z,60.04
2024-01-11T09:07:26.291Z,60.23
2024-01-11T09:09:57.493Z,60.12
2024-01-11T09:12:24.817Z,60.09
2024-01-11T09:14:51.621Z,59.95
2024-01-11T09:17:18.519Z,59.93
2024-01-11T09:19:45.500Z,59.86
2024-01-11T09:22:12.424Z,59.67
2024-01-11T09:24:40.205Z,59.75
2024-01-11T09:27:08.064Z,59.61
2024-01-11T09:29:34.976Z,59.81
2024-01-11T09:32:02.117Z,59.97
2024-01-11T09:34:29.090Z,59.69
2024-01-11T09:36:59.791Z,59.34
2024-01-11T09:39:27.197Z,58.95
2024-01-11T09:42:00.488Z,58.84
2024-01-11T09:44:27.615Z,58.74
2024-01-11T09:46:56.649Z,58.57
2024-01-11T09:49:24.736Z,58.33
2024-01-11T09:51:51.927Z,58.35
2024-01-11T09:54:22.208Z,58.34
2024-01-11T09:56:52.017Z,58.18
2024-01-11T09:59:25.742Z,59.06
2024-01-11T10:01:52.867Z,59.41
2024-01-11T10:04:20.126Z,58.68
2024-01-11T10:06:49.001Z,58.17
2024-01-11T10:09:17.501Z,57.98
2024-01-11T10:11:45.304Z,57.74
2024-01-11T10:14:15.020Z,57.61
2024-01-11T10:16:45.197Z,57.44
2024-01-11T10:19:14.892Z,57.19
2024-01-11T10:21:41.678Z,57.12
2024-01-11T10:24:09.066Z,56.95
2024-01-11T10:26:36.897Z,57.04
2024-01-11T10:29:03.577Z,56.99
2024-01-11T10:31:31.764Z,57.04
2024-01-11T10:33:58.911Z,57.36
2024-01-11T10:36:26.729Z,57.39
2024-01-11T10:38:54.894Z,57.30
2024-01-11T10:41:21.948Z,58.08
2024-01-11T10:43:50.033Z,58.09
2024-01-11T10:46:21.121Z,57.37
2024-01-11T10:48:51.978Z,57.02
2024-01-11T10:51:23.625Z,56.98
2024-01-11T10:53:52.802Z,56.65
2024-01-11T10:56:21.690Z,56.44
2024-01-11T10:58:49.412Z,56.16
2024-01-11T11:01:17.563Z,55.85
2024-01-11T11:03:46.032Z,55.50
2024-01-11T11:06:14.243Z,55.41
2024-01-11T11:08:42.814Z,54.81
2024-01-11T11:11:10.458Z,54.46
2024-01-11T11:13:38.626Z,53.86
2024-01-11T11:16:07.310Z,53.43
2024-01-11T11:18:36.679Z,52.60
2024-01-11T11:21:11.550Z,52.11
2024-01-11T11:23:38.814Z,51.39
2024-01-11T11:26:09.417Z,50.68
2024-01-11T11:28:38.002Z,49.37
2024-01-11T11:31:04.804Z,46.97
2024-01-11T11:33:33.302Z,43.05
2024-01-11T11:36:00.964Z,39.48
2024-01-11T11:38:29.830Z,36.17
2024-01-11T11:40:58.771Z,32.68
2024-01-11T11:43:27.688Z,30.27
2024-01-11T11:45:55.148Z,28.22
2024-01-11T11:48:31.571Z,26.25
2024-01-11T11:51:09.810Z,24.33
2024-01-11T11:53:40.753Z,22.89
2024-01-11T11:56:10.961Z,21.57
2024-01-11T11:58:38.203Z,20.41
2024-01-11T12:01:08.485Z,19.39
2024-01-11T12:03:38.295Z,18.59
2024-01-11T12:06:08.470Z,17.96
2024-01-11T12:08:37.030Z,17.17
2024-01-11T12:11:06.494Z,16.57
2024-01-11T12:13:33.855Z,16.03
2024-01-11T12:16:01.450Z,15.50
2024-01-11T12:18:28.428Z,15.18
2024-01-11T12:20:55.401Z,14.86
2024-01-11T12:23:22.358Z,14.31
2024-01-11T12:25:48.999Z,14.28
2024-01-11T12:28:16.064Z,13.92
2024-01-11T12:30:43.785Z,13.61
2024-01-11T12:33:10.836Z,13.29
2024-01-11T12:35:38.222Z,13.10
2024-01-11T12:38:07.593Z,12.75
2024-01-11T12:40:38.864Z,12.63
2024-01-11T12:43:06.028Z,12.65
2024-01-11T12:45:33.889Z,12.54
2024-01-11T12:48:01.681Z,13.45
2024-01-11T12:50:33.635Z,14.28
2024-01-11T12:53:10.328Z,15.31
2024-01-11T12:55:47.865Z,16.27
2024-01-11T12:58:22.888Z,16.23
2024-01-11T13:00:50.685Z,15.84
2024-01-11T13:03:17.728Z,15.18
2024-01-11T13:05:45.377Z,14.78
2024-01-11T13:08:12.587Z,14.20
2024-01-11T13:10:39.558Z,14.07
2024-01-11T13:13:10.127Z,13.53
2024-01-11T13:15:37.702Z,13.25
2024-01-11T13:18:05.769Z,12.87
2024-01-11T13:20:33.289Z,12.44
2024-01-11T13:23:14.867Z,12.80
2024-01-11T13:25:42.988Z,13.40
2024-01-11T13:28:12.035Z,14.24
2024-01-11T13:30:40.512Z,14.73
2024-01-11T13:33:09.258Z,14.33
2024-01-11T13:35:36.623Z,14.21
2024-01-11T13:38:04.291Z,14.97
2024-01-11T13:40:34.361Z,16.04
2024-01-11T13:43:00.986Z,17.24
2024-01-11T13:45:27.668Z,18.52
2024-01-11T13:47:57.888Z,19.71
2024-01-11T13:50:25.925Z,20.84
2024-01-11T13:52:53.112Z,22.09
2024-01-11T13:55:22.586Z,23.03
2024-01-11T13:57:51.584Z,24.25
2024-01-11T14:00:20.310Z,25.08
2024-01-11T14:02:50.320Z,25.91
2024-01-11T14:05:19.388Z,26.60
2024-01-11T14:07:48.210Z,27.67
2024-01-11T14:10:16.495Z,28.50
2024-01-11T14:12:43.237Z,29.00
2024-01-11T14:15:14.411Z,29.77
2024-01-11T14:17:42.770Z,30.84
2024-01-11T14:20:15.205Z,31.59
2024-01-11T14:22:48.265Z,32.11
2024-01-11T14:25:15.108Z,33.01
2024-01-11T14:27:42.884Z,33.48
2024-01-11T14:30:11.082Z,34.84
2024-01-11T14:32:39.276Z,35.08
2024-01-11T14:35:07.534Z,35.87
2024-01-11T14:37:36.314Z,36.16
2024-01-11T14:40:02.963Z,36.77
2024-01-11T14:42:29.497Z,37.37
2024-01-11T14:44:56.229Z,37.99
2024-01-11T14:47:24.063Z,38.03
2024-01-11T14:49:51.262Z,39.08
2024-01-11T14:52:19.974Z,39.56
2024-01-11T14:54:48.560Z,39.96
2024-01-11T14:57:16.387Z,40.13
2024-01-11T14:59:44.371Z,40.51
2024-01-11T15:02:11.994Z,41.09
2024-01-11T15:04:39.886Z,41.59
2024-01-11T15:07:08.475Z,41.41
2024-01-11T15:09:39.113Z,42.08
2024-01-11T15:12:08.419Z,41.81
2024-01-11T15:14:35.349Z,42.42
2024-01-11T15:17:03.339Z,42.53
2024-01-11T15:19:30.843Z,43.28
2024-01-11T15:21:58.021Z,43.80
2024-01-11T15:24:25.232Z,43.97
2024-01-11T15:26:51.965Z,43.80
2024-01-11T15:29:19.221Z,44.49
2024-01-11T15:31:47.834Z,44.40
2024-01-11T15:34:16.069Z,44.94
2024-01-11T15:36:43.866Z,44.49
2024-01-11T15:39:20.958Z,45.06
2024-01-11T15:41:58.442Z,45.27
2024-01-11T15:44:29.242Z,45.13
2024-01-11T15:46:58.119Z,45.67
2024-01-11T15:49:25.569Z,46.38
2024-01-11T15:51:52.920Z,46.29
2024-01-11T15:54:21.696Z,47.01
2024-01-11T15:56:50.314Z,47.51
2024-01-11T15:59:17.637Z,47.92
2024-01-11T16:01:51.807Z,47.71
2024-01-11T16:04:27.732Z,48.54
2024-01-11T16:06:55.068Z,48.92
2024-01-11T16:09:22.207Z,49.27
2024-01-11T16:11:49.726Z,48.90
2024-01-11T16:14:17.049Z,49.51
2024-01-11T16:16:43.772Z,49.74
2024-01-11T16:19:11.313Z,49.56
2024-01-11T16:21:38.024Z,50.34
2024-01-11T16:24:05.450Z,50.07
2024-01-11T16:26:32.201Z,49.95
2024-01-11T16:28:58.943Z,49.73
2024-01-11T16:31:26.216Z,49.72
2024-01-11T16:33:54.370Z,49.70
2024-01-11T16:36:21.817Z,49.71
2024-01-11T16:38:49.211Z,49.88
2024-01-11T16:41:16.316Z,50.04
2024-01-11T16:43:44.851Z,50.09
2024-01-11T16:46:20.784Z,50.43
2024-01-11T16:48:48.901Z,50.81
2024-01-11T16:51:15.713Z,50.72
2024-01-11T16:53:44.404Z,50.73
2024-01-11T16:56:11.768Z,50.38
2024-01-11T16:58:39.315Z,50.18
2024-01-11T17:01:06.192Z,50.31
2024-01-11T17:03:33.879Z,50.01
2024-01-11T17:06:01.241Z,49.89
2024-01-11T17:08:30.536Z,49.84
2024-01-11T17:10:57.530Z,49.64
2024-01-11T17:13:24.128Z,49.82
2024-01-11T17:15:50.953Z,50.01
2024-01-11T17:18:19.007Z,50.31
2024-01-11T17:20:46.508Z,50.32
2024-01-11T17:23:15.988Z,50.47
2024-01-11T17:25:42.842Z,50.64
2024-01-11T17:28:09.806Z,50.78
2024-01-11T17:30:37.221Z,51.10
2024-01-11T17:33:04.598Z,50.88
2024-01-11T17:35:31.777Z,50.37
2024-01-11T17:37:58.635Z,50.23
2024-01-11T17:40:25.197Z,49.64
2024-01-11T17:42:51.927Z,49.50
2024-01-11T17:45:18.506Z,48.95
2024-01-11T17:47:45.567Z,48.46
2024-01-11T17:50:12.376Z,48.02
2024-01-11T17:52:39.391Z,47.25
2024-01-11T17:55:06.606Z,46.72
2024-01-11T17:57:33.220Z,46.23
2024-01-11T18:00:00.357Z,45.82
2024-01-11T18:02:27.688Z,45.50
2024-01-11T18:04:54.584Z,45.12
2024-01-11T18:07:23.505Z,45.11
2024-01-11T18:09:51.163Z,44.83
2024-01-11T18:12:17.854Z,44.84
2024-01-11T18:14:44.488Z,44.65
2024-01-11T18:17:11.802Z,44.75
2024-01-11T18:19:38.533Z,44.69
2024-01-11T18:22:05.870Z,44.28
2024-01-11T18:24:36.334Z,44.32
2024-01-11T18:27:07.386Z,44.28
2024-01-11T18:29:35.156Z,44.32
2024-01-11T18:32:02.324Z,44.27
2024-01-11T18:34:29.195Z,44.20
2024-01-11T18:36:55.928Z,44.21
2024-01-11T18:39:22.487Z,44.11
2024-01-11T18:41:49.642Z,44.21
2024-01-11T18:44:16.744Z,44.70
2024-01-11T18:46:43.480Z,44.72
2024-01-11T18:49:10.671Z,45.01
2024-01-11T18:51:42.329Z,45.10
2024-01-11T18:54:09.706Z,45.37
2024-01-11T18:56:37.312Z,45.43
2024-01-11T18:59:04.639Z,45.73
2024-01-11T19:01:32.163Z,45.97
2024-01-11T19:03:59.442Z,46.57
2024-01-11T19:06:27.344Z,46.77
2024-01-11T19:08:54.896Z,46.73
2024-01-11T19:11:21.866Z,47.06
2024-01-11T19:13:48.505Z,47.30
2024-01-11T19:16:15.501Z,47.58
2024-01-11T19:18:42.372Z,47.91
2024-01-11T19:21:09.839Z,48.08
2024-01-11T19:23:38.281Z,48.37
2024-01-11T19:26:06.854Z,48.82
2024-01-11T19:28:33.827Z,50.13
2024-01-11T19:31:00.512Z,51.82
2024-01-11T19:33:29.575Z,50.53
2024-01-11T19:35:57.948Z,50.45
2024-01-11T19:38:24.714Z,50.56
2024-01-11T19:40:51.798Z,50.89
2024-01-11T19:43:20.055Z,51.17
2024-01-11T19:45:47.288Z,51.53
2024-01-11T19:48:15.459Z,51.82
2024-01-11T19:50:42.688Z,52.13
2024-01-11T19:53:10.208Z,52.53
2024-01-11T19:55:37.071Z,53.03
2024-01-11T19:58:04.085Z,53.44
2024-01-11T20:00:31.085Z,54.29
2024-01-11T20:02:58.857Z,54.96
2024-01-11T20:05:25.735Z,55.85
2024-01-11T20:07:52.628Z,56.31
2024-01-11T20:10:19.314Z,56.89
2024-01-11T20:12:46.010Z,57.52
2024-01-11T20:15:13.739Z,57.88
2024-01-11T20:17:40.953Z,58.46
2024-01-11T20:20:09.454Z,59.18
2024-01-11T20:22:36.970Z,59.42
2024-01-11T20:25:04.159Z,60.12
2024-01-11T20:27:30.802Z,60.79
2024-01-11T20:29:57.610Z,61.26
2024-01-11T20:32:24.894Z,61.38
2024-01-11T20:34:51.739Z,61.87
2024-01-11T20:37:19.966Z,62.37
2024-01-11T20:39:47.274Z,62.42
2024-01-11T20:42:14.132Z,62.77
2024-01-11T20:44:40.740Z,63.21
2024-01-11T20:47:07.470Z,63.44
2024-01-11T20:49:34.960Z,63.98
2024-01-11T20:52:02.363Z,64.51
2024-01-11T20:54:28.922Z,64.65
2024-01-11T20:56:56.721Z,65.06
2024-01-11T20:59:23.443Z,65.28
2024-01-11T21:01:50.955Z,65.43
2024-01-11T21:04:17.550Z,65.72
2024-01-11T21:06:45.019Z,66.04
2024-01-11T21:09:12.092Z,66.08
2024-01-11T21:11:38.990Z,66.24
2024-01-11T21:14:06.026Z,66.35
2024-01-11T21:16:32.620Z,66.45
2024-01-11T21:18:59.366Z,66.61
2024-01-11T21:21:27.895Z,66.46
2024-01-11T21:24:00.840Z,66.49
2024-01-11T21:26:31.481Z,66.57
2024-01-11T21:28:59.296Z,66.48
2024-01-11T21:31:28.310Z,66.57
2024-01-11T21:33:55.565Z,66.64
2024-01-11T21:36:25.545Z,66.80
2024-01-11T21:38:57.834Z,66.87
2024-01-11T21:41:28.855Z,67.13
2024-01-11T21:43:56.749Z,67.63
2024-01-11T21:46:24.101Z,68.77
2024-01-11T21:48:51.361Z,68.09
2024-01-11T21:51:18.603Z,67.78
2024-01-11T21:53:45.455Z,67.72
2024-01-11T21:56:13.441Z,67.63
2024-01-11T21:58:41.041Z,67.71
2024-01-11T22:01:08.479Z,67.64
2024-01-11T22:03:37.163Z,67.74
2024-01-11T22:06:04.916Z,67.68
2024-01-11T22:08:32.210Z,67.69
2024-01-11T22:10:59.279Z,67.61
2024-01-11T22:13:26.550Z,67.74
2024-01-11T22:15:53.984Z,67.75
2024-01-11T22:18:20.640Z,67.75
2024-01-11T22:20:47.795Z,67.95
2024-01-11T22:23:14.663Z,68.14
2024-01-11T22:25:41.872Z,68.15
2024-01-11T22:28:08.625Z,68.32
2024-01-11T22:30:35.372Z,68.50
2024-01-11T22:33:02.572Z,68.42
2024-01-11T22:35:29.292Z,68.66
2024-01-11T22:37:56.524Z,68.66
2024-01-11T22:40:23.840Z,68.46
2024-01-11T22:42:51.031Z,68.54
2024-01-11T22:45:18.047Z,68.46
2024-01-11T22:47:45.397Z,68.42
2024-01-11T22:50:12.935Z,68.60
2024-01-11T22:52:39.772Z,68.52
2024-01-11T22:55:07.354Z,68.59
2024-01-11T22:57:34.859Z,68.49
2024-01-11T23:00:01.914Z,68.48
2024-01-11T23:02:28.892Z,68.66
2024-01-11T23:04:55.560Z,68.79
2024-01-11T23:07:22.791Z,68.54
2024-01-11T23:09:51.540Z,68.70
2024-01-11T23:12:18.355Z,68.57
2024-01-11T23:14:45.344Z,68.59
2024-01-11T23:17:12.083Z,68.63
2024-01-11T23:19:38.866Z,68.90
2024-01-11T23:22:05.798Z,68.73
2024-01-11T23:24:32.330Z,68.69
2024-01-11T23:26:58.908Z,68.76
2024-01-11T23:29:25.672Z,68.84
2024-01-11T23:31:52.506Z,69.03
2024-01-11T23:34:19.101Z,68.97
2024-01-11T23:36:45.686Z,68.88
2024-01-11T23:39:12.847Z,68.95
2024-01-11T23:41:39.538Z,68.79
2024-01-11T23:44:06.659Z,68.96
2024-01-11T23:46:33.391Z,69.00
2024-01-11T23:49:00.033Z,69.00
2024-01-11T23:51:27.364Z,68.94
2024-01-11T23:53:54.249Z,69.04
2024-01-11T23:56:20.873Z,68.97
2024-01-11T23:58:47.818Z,69.00
